sensor_id;sensor_type;location;lat;lon;timestamp;pressure;altitude;pressure_sealevel;temperature;humidity
56006;BME280;41888;44.696;10.522;2023-08-30T00:00:58;99380.25;;;16.72;100.00
56006;BME280;41888;44.696;10.522;2023-08-30T00:03:24;99381.06;;;16.73;100.00
56006;BME280;41888;44.696;10.522;2023-08-30T00:05:50;99393.44;;;16.74;100.00
56006;BME280;41888;44.696;10.522;2023-08-30T00:08:16;99396.63;;;16.71;100.00
56006;BME280;41888;44.696;10.522;2023-08-30T00:10:46;99400.44;;;16.70;100.00
56006;BME280;41888;44.696;10.522;2023-08-30T00:13:12;99415.19;;;16.67;100.00
56006;BME280;41888;44.696;10.522;2023-08-30T00:15:38;99430.47;;;16.57;100.00
56006;BME280;41888;44.696;10.522;2023-08-30T00:18:05;99440.63;;;16.44;100.00
56006;BME280;41888;44.696;10.522;2023-08-30T00:20:32;99430.72;;;16.40;100.00
56006;BME280;41888;44.696;10.522;2023-08-30T00:22:58;99412.19;;;16.38;100.00
56006;BME280;41888;44.696;10.522;2023-08-30T00:25:24;99435.81;;;16.36;100.00
56006;BME280;41888;44.696;10.522;2023-08-30T00:27:50;99433.94;;;16.37;100.00
56006;BME280;41888;44.696;10.522;2023-08-30T00:30:17;99429.06;;;16.29;100.00
56006;BME280;41888;44.696;10.522;2023-08-30T00:32:43;99416.47;;;16.29;100.00
56006;BME280;41888;44.696;10.522;2023-08-30T00:35:10;99423.44;;;16.35;100.00
56006;BME280;41888;44.696;10.522;2023-08-30T00:37:37;99426.69;;;16.37;100.00
56006;BME280;41888;44.696;10.522;2023-08-30T00:40:03;99429.38;;;16.32;100.00
56006;BME280;41888;44.696;10.522;2023-08-30T00:42:29;99440.13;;;16.42;100.00
56006;BME280;41888;44.696;10.522;2023-08-30T00:44:56;99438.50;;;16.41;100.00
56006;BME280;41888;44.696;10.522;2023-08-30T00:47:22;99439.31;;;16.47;100.00
56006;BME280;41888;44.696;10.522;2023-08-30T00:49:48;99442.25;;;16.56;100.00
56006;BME280;41888;44.696;10.522;2023-08-30T00:52:15;99444.97;;;16.61;100.00
56006;BME280;41888;44.696;10.522;2023-08-30T00:54:41;99447.41;;;16.62;100.00
56006;BME280;41888;44.696;10.522;2023-08-30T00:57:08;99447.16;;;16.59;100.00
56006;BME280;41888;44.696;10.522;2023-08-30T00:59:35;99455.22;;;16.59;100.00
56006;BME280;41888;44.696;10.522;2023-08-30T01:02:03;99451.94;;;16.46;100.00
56006;BME280;41888;44.696;10.522;2023-08-30T01:04:30;99439.59;;;16.56;100.00
56006;BME280;41888;44.696;10.522;2023-08-30T01:06:56;99439.31;;;16.52;100.00
56006;BME280;41888;44.696;10.522;2023-08-30T01:09:23;99441.75;;;16.48;100.00
56006;BME280;41888;44.696;10.522;2023-08-30T01:14:37;99455.22;;;16.59;100.00
56006;BME280;41888;44.696;10.522;2023-08-30T01:17:05;99447.63;;;16.45;100.00
56006;BME280;41888;44.696;10.522;2023-08-30T01:19:42;99433.69;;;16.38;100.00
56006;BME280;41888;44.696;10.522;2023-08-30T01:22:35;99438.75;;;16.40;100.00
56006;BME280;41888;44.696;10.522;2023-08-30T01:27:51;99436.88;;;16.40;100.00
56006;BME280;41888;44.696;10.522;2023-08-30T01:30:18;99437.69;;;16.41;100.00
56006;BME280;41888;44.696;10.522;2023-08-30T01:32:46;99425.63;;;16.43;100.00
56006;BME280;41888;44.696;10.522;2023-08-30T01:35:14;99423.44;;;16.30;100.00
56006;BME280;41888;44.696;10.522;2023-08-30T01:37:45;99419.97;;;16.30;100.00
56006;BME280;41888;44.696;10.522;2023-08-30T01:40:12;99408.41;;;16.39;100.00
56006;BME280;41888;44.696;10.522;2023-08-30T01:42:41;99403.34;;;16.38;100.00
56006;BME280;41888;44.696;10.522;2023-08-30T01:45:11;99402.53;;;16.42;100.00
56006;BME280;41888;44.696;10.522;2023-08-30T01:47:41;99410.03;;;16.45;100.00
56006;BME280;41888;44.696;10.522;2023-08-30T01:50:09;99410.59;;;16.47;100.00
56006;BME280;41888;44.696;10.522;2023-08-30T01:52:36;99406.03;;;16.48;100.00
56006;BME280;41888;44.696;10.522;2023-08-30T01:55:03;99411.91;;;16.40;100.00
56006;BME280;41888;44.696;10.522;2023-08-30T01:57:30;99420.75;;;16.30;100.00
56006;BME280;41888;44.696;10.522;2023-08-30T01:59:56;99409.75;;;16.27;100.00
56006;BME280;41888;44.696;10.522;2023-08-30T02:02:22;99410.03;;;16.25;100.00
56006;BME280;41888;44.696;10.522;2023-08-30T02:04:49;99406.78;;;16.23;100.00
56006;BME280;41888;44.696;10.522;2023-08-30T02:07:26;99398.22;;;16.16;100.00
56006;BME280;41888;44.696;10.522;2023-08-30T02:10:10;99401.72;;;16.27;100.00
56006;BME280;41888;44.696;10.522;2023-08-30T02:12:49;99404.41;;;16.37;100.00
56006;BME280;41888;44.696;10.522;2023-08-30T02:15:16;99396.09;;;16.38;100.00
56006;BME280;41888;44.696;10.522;2023-08-30T02:17:43;99401.19;;;16.55;100.00
56006;BME280;41888;44.696;10.522;2023-08-30T02:20:10;99391.00;;;16.62;100.00
56006;BME280;41888;44.696;10.522;2023-08-30T02:22:37;99394.22;;;16.49;100.00
56006;BME280;41888;44.696;10.522;2023-08-30T02:25:03;99395.00;;;16.44;100.00
56006;BME280;41888;44.696;10.522;2023-08-30T02:27:34;99396.91;;;16.49;100.00
56006;BME280;41888;44.696;10.522;2023-08-30T02:30:03;99395.53;;;16.41;100.00
56006;BME280;41888;44.696;10.522;2023-08-30T02:32:29;99403.09;;;16.50;100.00
56006;BME280;41888;44.696;10.522;2023-08-30T02:34:56;99402.53;;;16.42;100.00
56006;BME280;41888;44.696;10.522;2023-08-30T02:37:22;99399.84;;;16.58;100.00
56006;BME280;41888;44.696;10.522;2023-08-30T02:39:49;99402.00;;;16.61;100.00
56006;BME280;41888;44.696;10.522;2023-08-30T02:42:15;99404.16;;;16.54;100.00
56006;BME280;41888;44.696;10.522;2023-08-30T02:44:41;99405.22;;;16.58;100.00
56006;BME280;41888;44.696;10.522;2023-08-30T02:47:08;99405.78;;;16.55;100.00
56006;BME280;41888;44.696;10.522;2023-08-30T02:49:34;99404.66;;;16.51;100.00
56006;BME280;41888;44.696;10.522;2023-08-30T02:52:00;99400.66;;;16.58;100.00
56006;BME280;41888;44.696;10.522;2023-08-30T02:54:26;99396.38;;;16.62;100.00
56006;BME280;41888;44.696;10.522;2023-08-30T02:56:53;99393.41;;;16.43;100.00
56006;BME280;41888;44.696;10.522;2023-08-30T02:59:19;99397.75;;;16.60;100.00
56006;BME280;41888;44.696;10.522;2023-08-30T03:01:45;99396.63;;;16.56;100.00
56006;BME280;41888;44.696;10.522;2023-08-30T03:04:11;99405.81;;;16.60;100.00
56006;BME280;41888;44.696;10.522;2023-08-30T03:06:38;99400.69;;;16.63;100.00
56006;BME280;41888;44.696;10.522;2023-08-30T03:09:04;99391.28;;;16.76;100.00
56006;BME280;41888;44.696;10.522;2023-08-30T03:11:32;99384.56;;;16.73;100.00
56006;BME280;41888;44.696;10.522;2023-08-30T03:13:58;99387.00;;;16.70;100.00
56006;BME280;41888;44.696;10.522;2023-08-30T03:16:24;99390.75;;;16.59;100.00
56006;BME280;41888;44.696;10.522;2023-08-30T03:18:51;99389.91;;;16.48;100.00
56006;BME280;41888;44.696;10.522;2023-08-30T03:21:17;99398.78;;;16.54;100.00
56006;BME280;41888;44.696;10.522;2023-08-30T03:23:44;99392.63;;;16.63;100.00
56006;BME280;41888;44.696;10.522;2023-08-30T03:26:14;99391.00;;;16.67;100.00
56006;BME280;41888;44.696;10.522;2023-08-30T03:28:42;99389.13;;;16.68;100.00
56006;BME280;41888;44.696;10.522;2023-08-30T03:31:19;99391.81;;;16.73;100.00
56006;BME280;41888;44.696;10.522;2023-08-30T03:33:47;99394.50;;;16.73;100.00
56006;BME280;41888;44.696;10.522;2023-08-30T03:36:15;99391.28;;;16.81;100.00
56006;BME280;41888;44.696;10.522;2023-08-30T03:38:43;99396.66;;;16.81;100.00
56006;BME280;41888;44.696;10.522;2023-08-30T03:41:11;99392.59;;;16.83;100.00
56006;BME280;41888;44.696;10.522;2023-08-30T03:43:37;99395.56;;;16.62;100.00
56006;BME280;41888;44.696;10.522;2023-08-30T03:46:04;99400.41;;;16.50;100.00
56006;BME280;41888;44.696;10.522;2023-08-30T03:48:30;99399.03;;;16.57;100.00
56006;BME280;41888;44.696;10.522;2023-08-30T03:50:57;99391.56;;;16.74;100.00
56006;BME280;41888;44.696;10.522;2023-08-30T03:53:24;99392.38;;;16.75;100.00
56006;BME280;41888;44.696;10.522;2023-08-30T03:55:50;99391.28;;;16.86;100.00
56006;BME280;41888;44.696;10.522;2023-08-30T03:58:18;99380.78;;;16.89;100.00
56006;BME280;41888;44.696;10.522;2023-08-30T04:00:45;99384.81;;;16.82;100.00
56006;BME280;41888;44.696;10.522;2023-08-30T04:03:12;99386.97;;;16.80;100.00
56006;BME280;41888;44.696;10.522;2023-08-30T04:05:39;99389.13;;;16.73;100.00
56006;BME280;41888;44.696;10.522;2023-08-30T04:08:06;99390.75;;;16.69;100.00
56006;BME280;41888;44.696;10.522;2023-08-30T04:10:36;99384.00;;;16.71;100.00
56006;BME280;41888;44.696;10.522;2023-08-30T04:13:03;99380.25;;;16.57;100.00
56006;BME280;41888;44.696;10.522;2023-08-30T04:15:36;99382.69;;;16.43;100.00
56006;BME280;41888;44.696;10.522;2023-08-30T04:18:03;99384.81;;;16.41;100.00
56006;BME280;41888;44.696;10.522;2023-08-30T04:20:30;99396.34;;;16.42;100.00
56006;BME280;41888;44.696;10.522;2023-08-30T04:22:58;99391.78;;;16.27;100.00
56006;BME280;41888;44.696;10.522;2023-08-30T04:25:30;99399.84;;;16.22;100.00
56006;BME280;41888;44.696;10.522;2023-08-30T04:27:56;99391.53;;;16.39;100.00
56006;BME280;41888;44.696;10.522;2023-08-30T04:30:23;99390.72;;;16.43;100.00
56006;BME280;41888;44.696;10.522;2023-08-30T04:32:49;99395.00;;;16.29;100.00
56006;BME280;41888;44.696;10.522;2023-08-30T04:35:15;99400.91;;;16.52;100.00
56006;BME280;41888;44.696;10.522;2023-08-30T04:37:41;99405.22;;;16.47;100.00
56006;BME280;41888;44.696;10.522;2023-08-30T04:40:09;99401.97;;;16.56;100.00
56006;BME280;41888;44.696;10.522;2023-08-30T04:42:35;99392.38;;;16.60;100.00
56006;BME280;41888;44.696;10.522;2023-08-30T04:45:02;99400.09;;;16.46;100.00
56006;BME280;41888;44.696;10.522;2023-08-30T04:47:29;99397.16;;;16.42;100.00
56006;BME280;41888;44.696;10.522;2023-08-30T04:49:56;99403.34;;;16.43;100.00
56006;BME280;41888;44.696;10.522;2023-08-30T04:52:22;99401.72;;;16.42;100.00
56006;BME280;41888;44.696;10.522;2023-08-30T04:54:49;99406.03;;;16.53;100.00
56006;BME280;41888;44.696;10.522;2023-08-30T04:57:15;99404.41;;;16.57;100.00
56006;BME280;41888;44.696;10.522;2023-08-30T04:59:45;99404.66;;;16.56;100.00
56006;BME280;41888;44.696;10.522;2023-08-30T05:02:12;99410.84;;;16.56;100.00
56006;BME280;41888;44.696;10.522;2023-08-30T05:04:38;99413.81;;;16.55;100.00
56006;BME280;41888;44.696;10.522;2023-08-30T05:07:05;99425.09;;;16.57;100.00
56006;BME280;41888;44.696;10.522;2023-08-30T05:09:31;99429.41;;;16.63;100.00
56006;BME280;41888;44.696;10.522;2023-08-30T05:11:58;99424.59;;;16.70;100.00
56006;BME280;41888;44.696;10.522;2023-08-30T05:14:25;99435.84;;;16.72;100.00
56006;BME280;41888;44.696;10.522;2023-08-30T05:16:51;99432.91;;;16.73;100.00
56006;BME280;41888;44.696;10.522;2023-08-30T05:19:17;99431.28;;;16.82;100.00
56006;BME280;41888;44.696;10.522;2023-08-30T05:21:44;99435.06;;;16.86;100.00
56006;BME280;41888;44.696;10.522;2023-08-30T05:24:10;99432.63;;;16.90;100.00
56006;BME280;41888;44.696;10.522;2023-08-30T05:26:37;99429.69;;;17.02;100.00
56006;BME280;41888;44.696;10.522;2023-08-30T05:29:04;99436.91;;;17.11;100.00
56006;BME280;41888;44.696;10.522;2023-08-30T05:31:30;99444.72;;;17.18;100.00
56006;BME280;41888;44.696;10.522;2023-08-30T05:33:56;99441.72;;;17.24;100.00
56006;BME280;41888;44.696;10.522;2023-08-30T05:36:22;99450.06;;;17.33;100.00
56006;BME280;41888;44.696;10.522;2023-08-30T05:38:49;99448.16;;;17.34;100.00
56006;BME280;41888;44.696;10.522;2023-08-30T05:41:15;99457.81;;;17.35;100.00
56006;BME280;41888;44.696;10.522;2023-08-30T05:43:41;99458.13;;;17.33;100.00
56006;BME280;41888;44.696;10.522;2023-08-30T05:46:07;99455.69;;;17.31;100.00
56006;BME280;41888;44.696;10.522;2023-08-30T05:48:38;99460.50;;;17.35;100.00
56006;BME280;41888;44.696;10.522;2023-08-30T05:51:04;99449.78;;;17.29;100.00
56006;BME280;41888;44.696;10.522;2023-08-30T05:53:30;99456.22;;;17.34;100.00
56006;BME280;41888;44.696;10.522;2023-08-30T05:55:56;99457.56;;;17.36;100.00
56006;BME280;41888;44.696;10.522;2023-08-30T05:58:23;99455.66;;;17.42;100.00
56006;BME280;41888;44.696;10.522;2023-08-30T06:00:49;99468.81;;;17.58;100.00
56006;BME280;41888;44.696;10.522;2023-08-30T06:03:15;99459.38;;;17.76;100.00
56006;BME280;41888;44.696;10.522;2023-08-30T06:05:42;99459.63;;;17.80;100.00
56006;BME280;41888;44.696;10.522;2023-08-30T06:08:09;99465.25;;;17.83;100.00
56006;BME280;41888;44.696;10.522;2023-08-30T06:10:36;99470.13;;;17.76;100.00
56006;BME280;41888;44.696;10.522;2023-08-30T06:13:02;99473.34;;;17.73;100.00
56006;BME280;41888;44.696;10.522;2023-08-30T06:15:29;99477.66;;;17.74;100.00
56006;BME280;41888;44.696;10.522;2023-08-30T06:17:55;99473.38;;;17.68;100.00
56006;BME280;41888;44.696;10.522;2023-08-30T06:20:21;99473.59;;;17.82;100.00
56006;BME280;41888;44.696;10.522;2023-08-30T06:22:47;99482.72;;;17.91;100.00
56006;BME280;41888;44.696;10.522;2023-08-30T06:25:13;99492.06;;;17.98;100.00
56006;BME280;41888;44.696;10.522;2023-08-30T06:27:42;99486.72;;;17.93;100.00
56006;BME280;41888;44.696;10.522;2023-08-30T06:30:10;99495.91;;;17.92;100.00
56006;BME280;41888;44.696;10.522;2023-08-30T06:32:36;99504.84;;;18.32;100.00
56006;BME280;41888;44.696;10.522;2023-08-30T06:35:03;99511.03;;;18.32;100.00
56006;BME280;41888;44.696;10.522;2023-08-30T06:37:30;99519.41;;;18.26;100.00
56006;BME280;41888;44.696;10.522;2023-08-30T06:39:56;99527.03;;;18.08;100.00
56006;BME280;41888;44.696;10.522;2023-08-30T06:42:22;99530.31;;;18.00;100.00
56006;BME280;41888;44.696;10.522;2023-08-30T06:44:50;99512.63;;;17.79;100.00
56006;BME280;41888;44.696;10.522;2023-08-30T06:47:16;99519.56;;;17.90;100.00
56006;BME280;41888;44.696;10.522;2023-08-30T06:49:42;99523.63;;;17.78;100.00
56006;BME280;41888;44.696;10.522;2023-08-30T06:52:08;99515.88;;;17.71;100.00
56006;BME280;41888;44.696;10.522;2023-08-30T06:54:35;99524.47;;;17.73;100.00
56006;BME280;41888;44.696;10.522;2023-08-30T06:57:02;99515.81;;;17.86;100.00
56006;BME280;41888;44.696;10.522;2023-08-30T06:59:28;99523.31;;;17.99;100.00
56006;BME280;41888;44.696;10.522;2023-08-30T07:01:55;99516.88;;;17.95;100.00
56006;BME280;41888;44.696;10.522;2023-08-30T07:04:21;99518.47;;;17.96;100.00
56006;BME280;41888;44.696;10.522;2023-08-30T07:06:47;99517.91;;;17.99;100.00
56006;BME280;41888;44.696;10.522;2023-08-30T07:09:14;99516.00;;;18.05;100.00
56006;BME280;41888;44.696;10.522;2023-08-30T07:11:42;99518.69;;;18.10;100.00
56006;BME280;41888;44.696;10.522;2023-08-30T07:14:10;99518.69;;;18.10;100.00
56006;BME280;41888;44.696;10.522;2023-08-30T07:16:37;99519.41;;;18.26;100.00
56006;BME280;41888;44.696;10.522;2023-08-30T07:19:03;99515.66;;;18.27;100.00
56006;BME280;41888;44.696;10.522;2023-08-30T07:21:29;99519.34;;;18.41;100.00
56006;BME280;41888;44.696;10.522;2023-08-30T07:23:56;99517.72;;;18.45;100.00
56006;BME280;41888;44.696;10.522;2023-08-30T07:26:22;99521.44;;;18.59;100.00
56006;BME280;41888;44.696;10.522;2023-08-30T07:28:48;99525.06;;;18.78;100.00
56006;BME280;41888;44.696;10.522;2023-08-30T07:31:14;99524.97;;;18.88;100.00
56006;BME280;41888;44.696;10.522;2023-08-30T07:33:44;99522.78;;;18.95;100.00
56006;BME280;41888;44.696;10.522;2023-08-30T07:36:10;99519.19;;;19.05;100.00
56006;BME280;41888;44.696;10.522;2023-08-30T07:38:37;99521.41;;;19.32;100.00
56006;BME280;41888;44.696;10.522;2023-08-30T07:41:04;99521.44;;;19.27;100.00
56006;BME280;41888;44.696;10.522;2023-08-30T07:43:30;99517.88;;;19.31;100.00
56006;BME280;41888;44.696;10.522;2023-08-30T07:45:57;99520.00;;;19.39;100.00
56006;BME280;41888;44.696;10.522;2023-08-30T07:48:26;99525.38;;;19.39;100.00
56006;BME280;41888;44.696;10.522;2023-08-30T07:50:53;99515.16;;;19.36;100.00
56006;BME280;41888;44.696;10.522;2023-08-30T07:53:19;99516.78;;;19.66;100.00
56006;BME280;41888;44.696;10.522;2023-08-30T07:55:54;99520.19;;;19.48;100.00
56006;BME280;41888;44.696;10.522;2023-08-30T07:58:20;99523.50;;;19.40;100.00
56006;BME280;41888;44.696;10.522;2023-08-30T08:00:49;99524.28;;;19.69;100.00
56006;BME280;41888;44.696;10.522;2023-08-30T08:03:16;99525.69;;;19.91;100.00
56006;BME280;41888;44.696;10.522;2023-08-30T08:05:42;99524.47;;;20.02;100.00
56006;BME280;41888;44.696;10.522;2023-08-30T08:08:08;99532.53;;;20.25;100.00
56006;BME280;41888;44.696;10.522;2023-08-30T08:10:37;99531.72;;;20.25;100.00
56006;BME280;41888;44.696;10.522;2023-08-30T08:13:03;99527.06;;;20.31;100.00
56006;BME280;41888;44.696;10.522;2023-08-30T08:15:32;99529.69;;;20.41;100.00
56006;BME280;41888;44.696;10.522;2023-08-30T08:18:02;99532.31;;;20.46;100.00
56006;BME280;41888;44.696;10.522;2023-08-30T08:20:29;99536.56;;;20.28;100.00
56006;BME280;41888;44.696;10.522;2023-08-30T08:22:56;99536.38;;;20.81;100.00
56006;BME280;41888;44.696;10.522;2023-08-30T08:25:22;99539.66;;;20.96;100.00
56006;BME280;41888;44.696;10.522;2023-08-30T08:27:49;99543.72;;;21.31;100.00
56006;BME280;41888;44.696;10.522;2023-08-30T08:30:17;99537.78;;;21.62;100.00
56006;BME280;41888;44.696;10.522;2023-08-30T08:32:45;99538.91;;;21.88;100.00
56006;BME280;41888;44.696;10.522;2023-08-30T08:35:11;99528.66;;;21.85;100.00
56006;BME280;41888;44.696;10.522;2023-08-30T08:37:37;99533.88;;;22.22;100.00
56006;BME280;41888;44.696;10.522;2023-08-30T08:40:04;99532.16;;;22.26;100.00
56006;BME280;41888;44.696;10.522;2023-08-30T08:42:35;99536.22;;;22.15;100.00
56006;BME280;41888;44.696;10.522;2023-08-30T08:45:03;99536.53;;;22.14;100.00
56006;BME280;41888;44.696;10.522;2023-08-30T08:47:33;99539.19;;;22.27;100.00
56006;BME280;41888;44.696;10.522;2023-08-30T08:49:59;99540.31;;;22.26;100.00
56006;BME280;41888;44.696;10.522;2023-08-30T08:52:28;99540.13;;;22.23;100.00
56006;BME280;41888;44.696;10.522;2023-08-30T08:54:55;99546.53;;;22.27;100.00
56006;BME280;41888;44.696;10.522;2023-08-30T08:57:21;99548.94;;;22.28;100.00
56006;BME280;41888;44.696;10.522;2023-08-30T08:59:48;99545.59;;;22.45;99.31
56006;BME280;41888;44.696;10.522;2023-08-30T09:02:15;99548.59;;;22.57;100.00
56006;BME280;41888;44.696;10.522;2023-08-30T09:04:41;99543.88;;;22.63;98.40
56006;BME280;41888;44.696;10.522;2023-08-30T09:07:08;99544.78;;;22.72;96.63
56006;BME280;41888;44.696;10.522;2023-08-30T09:09:34;99552.31;;;22.48;92.99
56006;BME280;41888;44.696;10.522;2023-08-30T09:12:01;99547.53;;;22.81;93.97
56006;BME280;41888;44.696;10.522;2023-08-30T09:14:27;99556.38;;;22.86;96.99
56006;BME280;41888;44.696;10.522;2023-08-30T09:16:57;99559.69;;;23.05;92.84
56006;BME280;41888;44.696;10.522;2023-08-30T09:19:23;99550.97;;;23.31;95.03
56006;BME280;41888;44.696;10.522;2023-08-30T09:21:57;99545.53;;;23.08;97.29
56006;BME280;41888;44.696;10.522;2023-08-30T09:24:24;99554.53;;;22.95;95.27
56006;BME280;41888;44.696;10.522;2023-08-30T09:26:54;99553.66;;;23.31;96.07
56006;BME280;41888;44.696;10.522;2023-08-30T09:29:21;99555.59;;;23.30;93.80
56006;BME280;41888;44.696;10.522;2023-08-30T09:31:52;99561.69;;;23.13;93.88
56006;BME280;41888;44.696;10.522;2023-08-30T09:34:24;99559.47;;;23.15;93.30
56006;BME280;41888;44.696;10.522;2023-08-30T09:36:52;99568.53;;;23.11;93.97
56006;BME280;41888;44.696;10.522;2023-08-30T09:39:18;99579.97;;;22.86;94.71
56006;BME280;41888;44.696;10.522;2023-08-30T09:41:47;99574.75;;;22.89;92.03
56006;BME280;41888;44.696;10.522;2023-08-30T09:44:15;99580.72;;;23.58;91.87
56006;BME280;41888;44.696;10.522;2023-08-30T09:46:43;99579.22;;;23.52;89.34
56006;BME280;41888;44.696;10.522;2023-08-30T09:49:10;99570.50;;;23.19;92.06
56006;BME280;41888;44.696;10.522;2023-08-30T09:51:40;99577.28;;;23.30;92.70
56006;BME280;41888;44.696;10.522;2023-08-30T09:54:16;99579.19;;;23.07;90.55
56006;BME280;41888;44.696;10.522;2023-08-30T09:56:44;99578.16;;;23.39;88.47
56006;BME280;41888;44.696;10.522;2023-08-30T09:59:12;99586.75;;;23.55;89.04
56006;BME280;41888;44.696;10.522;2023-08-30T10:01:39;99579.16;;;24.05;84.89
56006;BME280;41888;44.696;10.522;2023-08-30T10:04:08;99585.38;;;24.45;81.96
56006;BME280;41888;44.696;10.522;2023-08-30T10:06:40;99576.81;;;23.81;80.93
56006;BME280;41888;44.696;10.522;2023-08-30T10:09:07;99583.75;;;23.96;80.59
56006;BME280;41888;44.696;10.522;2023-08-30T10:11:38;99587.56;;;24.26;79.09
56006;BME280;41888;44.696;10.522;2023-08-30T10:14:05;99574.78;;;23.95;78.36
56006;BME280;41888;44.696;10.522;2023-08-30T10:19:10;99582.69;;;24.62;75.64
56006;BME280;41888;44.696;10.522;2023-08-30T10:21:37;99577.72;;;24.64;74.62
56006;BME280;41888;44.696;10.522;2023-08-30T10:24:07;99571.22;;;25.08;73.76
56006;BME280;41888;44.696;10.522;2023-08-30T10:26:35;99580.94;;;24.66;71.93
56006;BME280;41888;44.696;10.522;2023-08-30T10:29:04;99573.63;;;24.93;71.54
56006;BME280;41888;44.696;10.522;2023-08-30T10:31:31;99577.09;;;24.67;73.07
56006;BME280;41888;44.696;10.522;2023-08-30T10:33:57;99579.06;;;24.93;73.18
56006;BME280;41888;44.696;10.522;2023-08-30T10:36:24;99566.84;;;24.64;73.24
56006;BME280;41888;44.696;10.522;2023-08-30T10:38:52;99573.44;;;25.06;73.59
56006;BME280;41888;44.696;10.522;2023-08-30T10:41:26;99562.53;;;24.80;72.59
56006;BME280;41888;44.696;10.522;2023-08-30T10:43:55;99575.19;;;24.76;70.17
56006;BME280;41888;44.696;10.522;2023-08-30T10:46:36;99572.50;;;25.02;69.95
56006;BME280;41888;44.696;10.522;2023-08-30T10:49:12;99565.56;;;24.70;70.26
56006;BME280;41888;44.696;10.522;2023-08-30T10:51:42;99573.44;;;25.06;68.43
56006;BME280;41888;44.696;10.522;2023-08-30T10:54:16;99562.50;;;24.46;68.66
56006;BME280;41888;44.696;10.522;2023-08-30T10:57:01;99561.53;;;25.54;66.40
56006;BME280;41888;44.696;10.522;2023-08-30T10:59:28;99561.59;;;25.02;65.98
56006;BME280;41888;44.696;10.522;2023-08-30T11:01:55;99544.44;;;24.76;67.91
56006;BME280;41888;44.696;10.522;2023-08-30T11:04:22;99555.34;;;25.19;66.32
56006;BME280;41888;44.696;10.522;2023-08-30T11:06:50;99547.78;;;25.59;65.88
56006;BME280;41888;44.696;10.522;2023-08-30T11:09:18;99535.16;;;25.37;66.60
56006;BME280;41888;44.696;10.522;2023-08-30T11:11:48;99539.44;;;25.47;65.35
56006;BME280;41888;44.696;10.522;2023-08-30T11:14:15;99532.16;;;25.77;65.27
56006;BME280;41888;44.696;10.522;2023-08-30T11:16:42;99547.63;;;25.55;66.33
56006;BME280;41888;44.696;10.522;2023-08-30T11:19:10;99536.72;;;25.55;65.99
56006;BME280;41888;44.696;10.522;2023-08-30T11:21:39;99540.16;;;25.82;63.48
56006;BME280;41888;44.696;10.522;2023-08-30T11:24:06;99535.72;;;25.69;63.76
56006;BME280;41888;44.696;10.522;2023-08-30T11:26:33;99535.47;;;25.36;65.94
56006;BME280;41888;44.696;10.522;2023-08-30T11:29:09;99524.63;;;24.93;65.22
56006;BME280;41888;44.696;10.522;2023-08-30T11:31:36;99530.16;;;25.39;66.75
56006;BME280;41888;44.696;10.522;2023-08-30T11:34:02;99524.47;;;25.15;65.06
56006;BME280;41888;44.696;10.522;2023-08-30T11:36:30;99525.19;;;25.58;63.98
56006;BME280;41888;44.696;10.522;2023-08-30T11:38:58;99522.56;;;25.71;62.57
56006;BME280;41888;44.696;10.522;2023-08-30T11:41:25;99522.00;;;25.39;64.31
56006;BME280;41888;44.696;10.522;2023-08-30T11:43:52;99512.97;;;25.64;64.12
56006;BME280;41888;44.696;10.522;2023-08-30T11:46:19;99501.53;;;25.80;62.38
56006;BME280;41888;44.696;10.522;2023-08-30T11:48:47;99499.94;;;26.08;62.03
56006;BME280;41888;44.696;10.522;2023-08-30T11:51:13;99493.28;;;26.26;61.53
56006;BME280;41888;44.696;10.522;2023-08-30T11:53:40;99486.03;;;25.72;61.18
56006;BME280;41888;44.696;10.522;2023-08-30T11:56:07;99469.72;;;25.54;60.74
56006;BME280;41888;44.696;10.522;2023-08-30T11:58:36;99449.72;;;25.50;60.72
56006;BME280;41888;44.696;10.522;2023-08-30T12:01:04;99449.00;;;25.71;60.26
56006;BME280;41888;44.696;10.522;2023-08-30T12:03:31;99443.09;;;25.69;59.65
56006;BME280;41888;44.696;10.522;2023-08-30T12:06:01;99442.44;;;25.72;58.77
56006;BME280;41888;44.696;10.522;2023-08-30T12:08:31;99452.94;;;25.82;60.28
56006;BME280;41888;44.696;10.522;2023-08-30T12:10:58;99445.91;;;25.43;61.02
56006;BME280;41888;44.696;10.522;2023-08-30T12:13:29;99437.75;;;26.01;60.69
56006;BME280;41888;44.696;10.522;2023-08-30T12:15:59;99424.56;;;25.53;60.66
56006;BME280;41888;44.696;10.522;2023-08-30T12:18:27;99407.19;;;25.67;59.19
56006;BME280;41888;44.696;10.522;2023-08-30T12:20:58;99403.53;;;25.62;59.28
56006;BME280;41888;44.696;10.522;2023-08-30T12:23:26;99389.78;;;25.50;56.64
56006;BME280;41888;44.696;10.522;2023-08-30T12:28:32;99385.84;;;25.39;59.37
56006;BME280;41888;44.696;10.522;2023-08-30T12:30:59;99381.00;;;26.24;58.16
56006;BME280;41888;44.696;10.522;2023-08-30T12:33:25;99385.56;;;25.32;56.88
56006;BME280;41888;44.696;10.522;2023-08-30T12:35:55;99384.03;;;25.81;57.38
56006;BME280;41888;44.696;10.522;2023-08-30T12:38:23;99376.53;;;25.78;57.21
56006;BME280;41888;44.696;10.522;2023-08-30T12:40:51;99371.91;;;25.03;57.15
56006;BME280;41888;44.696;10.522;2023-08-30T12:43:19;99353.91;;;25.19;58.03
56006;BME280;41888;44.696;10.522;2023-08-30T12:45:47;99293.34;;;25.51;58.01
56006;BME280;41888;44.696;10.522;2023-08-30T12:48:15;99297.03;;;25.76;55.32
56006;BME280;41888;44.696;10.522;2023-08-30T12:50:47;99293.06;;;25.44;55.45
56006;BME280;41888;44.696;10.522;2023-08-30T12:53:14;99289.69;;;25.47;57.44
56006;BME280;41888;44.696;10.522;2023-08-30T12:55:42;99290.72;;;25.34;57.75